sensor_id;sensor_type;location;lat;lon;timestamp;temperature;humidity
9998;DHT22;5038;53.064;8.624;2023-05-10T00:00:16;16.70;99.90
9998;DHT22;5038;53.064;8.624;2023-05-10T00:02:46;16.60;99.90
9998;DHT22;5038;53.064;8.624;2023-05-10T00:05:15;16.60;99.90
9998;DHT22;5038;53.064;8.624;2023-05-10T00:07:43;16.60;99.90
9998;DHT22;5038;53.064;8.624;2023-05-10T00:10:11;16.60;99.90
9998;DHT22;5038;53.064;8.624;2023-05-10T00:12:40;16.60;99.90
9998;DHT22;5038;53.064;8.624;2023-05-10T00:15:08;16.60;99.90
9998;DHT22;5038;53.064;8.624;2023-05-10T00:17:37;16.60;99.90
9998;DHT22;5038;53.064;8.624;2023-05-10T00:20:07;16.50;99.90
9998;DHT22;5038;53.064;8.624;2023-05-10T00:22:35;16.60;99.90
9998;DHT22;5038;53.064;8.624;2023-05-10T00:25:05;16.60;99.90
9998;DHT22;5038;53.064;8.624;2023-05-10T00:27:33;16.50;99.90
9998;DHT22;5038;53.064;8.624;2023-05-10T00:30:01;16.50;99.90
9998;DHT22;5038;53.064;8.624;2023-05-10T00:32:29;16.50;99.90
9998;DHT22;5038;53.064;8.624;2023-05-10T00:34:57;16.50;99.90
9998;DHT22;5038;53.064;8.624;2023-05-10T00:37:27;16.50;99.90
9998;DHT22;5038;53.064;8.624;2023-05-10T00:39:57;16.40;99.90
9998;DHT22;5038;53.064;8.624;2023-05-10T00:42:26;16.40;99.90
9998;DHT22;5038;53.064;8.624;2023-05-10T00:44:54;16.40;99.90
9998;DHT22;5038;53.064;8.624;2023-05-10T00:47:23;16.40;99.90
9998;DHT22;5038;53.064;8.624;2023-05-10T00:49:51;16.40;99.90
9998;DHT22;5038;53.064;8.624;2023-05-10T00:52:20;16.40;99.90
9998;DHT22;5038;53.064;8.624;2023-05-10T00:54:52;16.40;99.90
9998;DHT22;5038;53.064;8.624;2023-05-10T00:57:21;16.40;99.90
9998;DHT22;5038;53.064;8.624;2023-05-10T00:59:49;16.40;99.90
9998;DHT22;5038;53.064;8.624;2023-05-10T01:02:17;16.40;99.90
9998;DHT22;5038;53.064;8.624;2023-05-10T01:04:46;16.30;99.90
9998;DHT22;5038;53.064;8.624;2023-05-10T01:07:14;16.30;99.90
9998;DHT22;5038;53.064;8.624;2023-05-10T01:09:42;16.30;99.90
9998;DHT22;5038;53.064;8.624;2023-05-10T01:12:12;16.30;99.90
9998;DHT22;5038;53.064;8.624;2023-05-10T01:14:40;16.30;99.90
9998;DHT22;5038;53.064;8.624;2023-05-10T01:17:09;16.20;99.90
9998;DHT22;5038;53.064;8.624;2023-05-10T01:19:39;16.20;99.90
9998;DHT22;5038;53.064;8.624;2023-05-10T01:22:20;16.10;99.90
9998;DHT22;5038;53.064;8.624;2023-05-10T01:25:11;16.10;99.90
9998;DHT22;5038;53.064;8.624;2023-05-10T01:28:17;16.00;99.90
9998;DHT22;5038;53.064;8.624;2023-05-10T01:31:03;15.90;99.90
9998;DHT22;5038;53.064;8.624;2023-05-10T01:33:40;15.90;99.90
9998;DHT22;5038;53.064;8.624;2023-05-10T01:36:16;15.80;99.90
9998;DHT22;5038;53.064;8.624;2023-05-10T01:38:56;15.80;99.90
9998;DHT22;5038;53.064;8.624;2023-05-10T01:41:34;15.80;99.90
9998;DHT22;5038;53.064;8.624;2023-05-10T01:44:16;15.70;99.90
9998;DHT22;5038;53.064;8.624;2023-05-10T01:46:48;15.70;99.90
9998;DHT22;5038;53.064;8.624;2023-05-10T01:49:22;15.60;99.90
9998;DHT22;5038;53.064;8.624;2023-05-10T01:51:54;15.60;99.90
9998;DHT22;5038;53.064;8.624;2023-05-10T01:54:23;15.50;99.90
9998;DHT22;5038;53.064;8.624;2023-05-10T01:56:55;15.50;99.90
9998;DHT22;5038;53.064;8.624;2023-05-10T01:59:29;15.50;99.90
9998;DHT22;5038;53.064;8.624;2023-05-10T02:01:59;15.40;99.90
9998;DHT22;5038;53.064;8.624;2023-05-10T02:04:31;15.40;99.90
9998;DHT22;5038;53.064;8.624;2023-05-10T02:07:00;15.30;99.90
9998;DHT22;5038;53.064;8.624;2023-05-10T02:09:30;15.30;99.90
9998;DHT22;5038;53.064;8.624;2023-05-10T02:12:02;15.20;99.90
9998;DHT22;5038;53.064;8.624;2023-05-10T02:14:35;15.10;99.90
9998;DHT22;5038;53.064;8.624;2023-05-10T02:17:05;15.10;99.90
9998;DHT22;5038;53.064;8.624;2023-05-10T02:19:37;15.00;99.90
9998;DHT22;5038;53.064;8.624;2023-05-10T02:22:06;15.00;99.90
9998;DHT22;5038;53.064;8.624;2023-05-10T02:24:36;15.00;99.90
9998;DHT22;5038;53.064;8.624;2023-05-10T02:27:06;14.90;99.90
9998;DHT22;5038;53.064;8.624;2023-05-10T02:29:36;14.90;99.90
9998;DHT22;5038;53.064;8.624;2023-05-10T02:32:04;14.80;99.90
9998;DHT22;5038;53.064;8.624;2023-05-10T02:34:35;14.80;99.90
9998;DHT22;5038;53.064;8.624;2023-05-10T02:37:03;14.80;99.90
9998;DHT22;5038;53.064;8.624;2023-05-10T02:39:33;14.70;99.90
9998;DHT22;5038;53.064;8.624;2023-05-10T02:42:03;14.70;99.90
9998;DHT22;5038;53.064;8.624;2023-05-10T02:44:32;14.70;99.90
9998;DHT22;5038;53.064;8.624;2023-05-10T02:47:01;14.60;99.90
9998;DHT22;5038;53.064;8.624;2023-05-10T02:49:30;14.60;99.90
9998;DHT22;5038;53.064;8.624;2023-05-10T02:52:01;14.60;99.90
9998;DHT22;5038;53.064;8.624;2023-05-10T02:54:39;14.50;99.90
9998;DHT22;5038;53.064;8.624;2023-05-10T02:57:08;14.50;99.90
9998;DHT22;5038;53.064;8.624;2023-05-10T02:59:38;14.50;99.90
9998;DHT22;5038;53.064;8.624;2023-05-10T03:02:07;14.50;99.90
9998;DHT22;5038;53.064;8.624;2023-05-10T03:04:35;14.50;99.90
9998;DHT22;5038;53.064;8.624;2023-05-10T03:07:04;14.40;99.90
9998;DHT22;5038;53.064;8.624;2023-05-10T03:09:33;14.40;99.90
9998;DHT22;5038;53.064;8.624;2023-05-10T03:12:06;14.40;99.90
9998;DHT22;5038;53.064;8.624;2023-05-10T03:14:45;14.40;99.90
9998;DHT22;5038;53.064;8.624;2023-05-10T03:17:19;14.30;99.90
9998;DHT22;5038;53.064;8.624;2023-05-10T03:19:53;14.30;99.90
9998;DHT22;5038;53.064;8.624;2023-05-10T03:22:28;14.30;99.90
9998;DHT22;5038;53.064;8.624;2023-05-10T03:25:00;14.20;99.90
9998;DHT22;5038;53.064;8.624;2023-05-10T03:27:31;14.20;99.90
9998;DHT22;5038;53.064;8.624;2023-05-10T03:30:01;14.20;99.90
9998;DHT22;5038;53.064;8.624;2023-05-10T03:32:32;14.10;99.90
9998;DHT22;5038;53.064;8.624;2023-05-10T03:35:05;14.10;99.90
9998;DHT22;5038;53.064;8.624;2023-05-10T03:37:36;14.10;99.90
9998;DHT22;5038;53.064;8.624;2023-05-10T03:40:06;14.10;99.90
9998;DHT22;5038;53.064;8.624;2023-05-10T03:42:36;14.00;99.90
9998;DHT22;5038;53.064;8.624;2023-05-10T03:45:06;14.00;99.90
9998;DHT22;5038;53.064;8.624;2023-05-10T03:47:34;14.00;99.90
9998;DHT22;5038;53.064;8.624;2023-05-10T03:50:03;14.00;99.90
9998;DHT22;5038;53.064;8.624;2023-05-10T03:52:32;13.90;99.90
9998;DHT22;5038;53.064;8.624;2023-05-10T03:55:01;13.90;99.90
9998;DHT22;5038;53.064;8.624;2023-05-10T03:57:30;13.90;99.90
9998;DHT22;5038;53.064;8.624;2023-05-10T03:59:59;13.90;99.90
9998;DHT22;5038;53.064;8.624;2023-05-10T04:02:27;13.90;99.90
9998;DHT22;5038;53.064;8.624;2023-05-10T04:04:57;13.80;99.90
9998;DHT22;5038;53.064;8.624;2023-05-10T04:07:25;13.80;99.90
9998;DHT22;5038;53.064;8.624;2023-05-10T04:09:53;13.80;99.90
9998;DHT22;5038;53.064;8.624;2023-05-10T04:12:23;13.80;99.90
9998;DHT22;5038;53.064;8.624;2023-05-10T04:14:51;13.80;99.90
9998;DHT22;5038;53.064;8.624;2023-05-10T04:17:19;13.80;99.90
9998;DHT22;5038;53.064;8.624;2023-05-10T04:19:48;13.70;99.90
9998;DHT22;5038;53.064;8.624;2023-05-10T04:22:15;13.70;99.90
9998;DHT22;5038;53.064;8.624;2023-05-10T04:24:44;13.70;99.90
9998;DHT22;5038;53.064;8.624;2023-05-10T04:27:12;13.70;99.90
9998;DHT22;5038;53.064;8.624;2023-05-10T04:29:41;13.70;99.90
9998;DHT22;5038;53.064;8.624;2023-05-10T04:32:09;13.60;99.90
9998;DHT22;5038;53.064;8.624;2023-05-10T04:34:37;13.60;99.90
9998;DHT22;5038;53.064;8.624;2023-05-10T04:37:05;13.60;99.90
9998;DHT22;5038;53.064;8.624;2023-05-10T04:39:34;13.60;99.90
9998;DHT22;5038;53.064;8.624;2023-05-10T04:42:03;13.60;99.90
9998;DHT22;5038;53.064;8.624;2023-05-10T04:44:32;13.50;99.90
9998;DHT22;5038;53.064;8.624;2023-05-10T04:47:01;13.50;99.90
9998;DHT22;5038;53.064;8.624;2023-05-10T04:49:30;13.50;99.90
9998;DHT22;5038;53.064;8.624;2023-05-10T04:51:58;13.50;99.90
9998;DHT22;5038;53.064;8.624;2023-05-10T04:54:26;13.50;99.90
9998;DHT22;5038;53.064;8.624;2023-05-10T04:56:54;13.40;99.90
9998;DHT22;5038;53.064;8.624;2023-05-10T04:59:22;13.50;99.90
9998;DHT22;5038;53.064;8.624;2023-05-10T05:01:50;13.40;99.90
9998;DHT22;5038;53.064;8.624;2023-05-10T05:04:19;13.40;99.90
9998;DHT22;5038;53.064;8.624;2023-05-10T05:06:49;13.40;99.90
9998;DHT22;5038;53.064;8.624;2023-05-10T05:09:19;13.40;99.90
9998;DHT22;5038;53.064;8.624;2023-05-10T05:11:47;13.40;99.90
9998;DHT22;5038;53.064;8.624;2023-05-10T05:14:15;13.40;99.90
9998;DHT22;5038;53.064;8.624;2023-05-10T05:16:44;13.40;99.90
9998;DHT22;5038;53.064;8.624;2023-05-10T05:19:12;13.40;99.90
9998;DHT22;5038;53.064;8.624;2023-05-10T05:21:41;13.40;99.90
9998;DHT22;5038;53.064;8.624;2023-05-10T05:24:09;13.40;99.90
9998;DHT22;5038;53.064;8.624;2023-05-10T05:26:39;13.40;99.90
9998;DHT22;5038;53.064;8.624;2023-05-10T05:29:07;13.50;99.90
9998;DHT22;5038;53.064;8.624;2023-05-10T05:31:35;13.50;99.90
9998;DHT22;5038;53.064;8.624;2023-05-10T05:34:03;13.50;99.90
9998;DHT22;5038;53.064;8.624;2023-05-10T05:36:31;13.50;99.90
9998;DHT22;5038;53.064;8.624;2023-05-10T05:39:04;13.50;99.90
9998;DHT22;5038;53.064;8.624;2023-05-10T05:41:32;13.50;99.90
9998;DHT22;5038;53.064;8.624;2023-05-10T05:44:00;13.50;99.90
9998;DHT22;5038;53.064;8.624;2023-05-10T05:46:28;13.50;99.90
9998;DHT22;5038;53.064;8.624;2023-05-10T05:48:56;13.60;99.90
9998;DHT22;5038;53.064;8.624;2023-05-10T05:51:24;13.60;99.90
9998;DHT22;5038;53.064;8.624;2023-05-10T05:53:52;13.60;99.90
9998;DHT22;5038;53.064;8.624;2023-05-10T05:56:22;13.60;99.90
9998;DHT22;5038;53.064;8.624;2023-05-10T05:58:51;13.60;99.90
9998;DHT22;5038;53.064;8.624;2023-05-10T06:01:19;13.60;99.90
9998;DHT22;5038;53.064;8.624;2023-05-10T06:03:48;13.60;99.90
9998;DHT22;5038;53.064;8.624;2023-05-10T06:06:19;13.60;99.90
9998;DHT22;5038;53.064;8.624;2023-05-10T06:08:47;13.60;99.90
9998;DHT22;5038;53.064;8.624;2023-05-10T06:11:15;13.60;99.90
9998;DHT22;5038;53.064;8.624;2023-05-10T06:13:44;13.70;99.90
9998;DHT22;5038;53.064;8.624;2023-05-10T06:16:12;13.70;99.90
9998;DHT22;5038;53.064;8.624;2023-05-10T06:18:41;13.70;99.90
9998;DHT22;5038;53.064;8.624;2023-05-10T06:21:09;13.70;99.90
9998;DHT22;5038;53.064;8.624;2023-05-10T06:23:37;13.80;99.90
9998;DHT22;5038;53.064;8.624;2023-05-10T06:26:05;13.80;99.90
9998;DHT22;5038;53.064;8.624;2023-05-10T06:28:33;13.80;99.90
9998;DHT22;5038;53.064;8.624;2023-05-10T06:31:02;13.90;99.90
9998;DHT22;5038;53.064;8.624;2023-05-10T06:33:31;13.90;99.90
9998;DHT22;5038;53.064;8.624;2023-05-10T06:35:59;13.90;99.90
9998;DHT22;5038;53.064;8.624;2023-05-10T06:38:27;14.00;99.90
9998;DHT22;5038;53.064;8.624;2023-05-10T06:40:55;14.00;99.90
9998;DHT22;5038;53.064;8.624;2023-05-10T06:43:23;14.00;99.90
9998;DHT22;5038;53.064;8.624;2023-05-10T06:45:52;14.10;99.90
9998;DHT22;5038;53.064;8.624;2023-05-10T06:48:22;14.10;99.90
9998;DHT22;5038;53.064;8.624;2023-05-10T06:50:50;14.10;99.90
9998;DHT22;5038;53.064;8.624;2023-05-10T06:53:18;14.20;99.90
9998;DHT22;5038;53.064;8.624;2023-05-10T06:55:46;14.20;99.90
9998;DHT22;5038;53.064;8.624;2023-05-10T06:58:14;14.20;99.90
9998;DHT22;5038;53.064;8.624;2023-05-10T07:00:43;14.20;99.90
9998;DHT22;5038;53.064;8.624;2023-05-10T07:03:12;14.30;99.90
9998;DHT22;5038;53.064;8.624;2023-05-10T07:05:41;14.30;99.90
9998;DHT22;5038;53.064;8.624;2023-05-10T07:08:09;14.30;99.90
9998;DHT22;5038;53.064;8.624;2023-05-10T07:10:37;14.30;99.90
9998;DHT22;5038;53.064;8.624;2023-05-10T07:13:05;14.30;99.90
9998;DHT22;5038;53.064;8.624;2023-05-10T07:15:33;14.30;99.90
9998;DHT22;5038;53.064;8.624;2023-05-10T07:18:01;14.30;99.90
9998;DHT22;5038;53.064;8.624;2023-05-10T07:20:31;14.30;99.90
9998;DHT22;5038;53.064;8.624;2023-05-10T07:23:00;14.40;99.90
9998;DHT22;5038;53.064;8.624;2023-05-10T07:25:28;14.40;99.90
9998;DHT22;5038;53.064;8.624;2023-05-10T07:27:56;14.40;99.90
9998;DHT22;5038;53.064;8.624;2023-05-10T07:30:24;14.40;99.90
9998;DHT22;5038;53.064;8.624;2023-05-10T07:32:53;14.40;99.90
9998;DHT22;5038;53.064;8.624;2023-05-10T07:35:21;14.50;99.90
9998;DHT22;5038;53.064;8.624;2023-05-10T07:37:49;14.40;99.90
9998;DHT22;5038;53.064;8.624;2023-05-10T07:40:18;14.50;99.90
9998;DHT22;5038;53.064;8.624;2023-05-10T07:42:47;14.50;99.90
9998;DHT22;5038;53.064;8.624;2023-05-10T07:45:15;14.50;99.90
9998;DHT22;5038;53.064;8.624;2023-05-10T07:47:43;14.50;99.90
9998;DHT22;5038;53.064;8.624;2023-05-10T07:50:11;14.50;99.90
9998;DHT22;5038;53.064;8.624;2023-05-10T07:52:39;14.60;99.90
9998;DHT22;5038;53.064;8.624;2023-05-10T07:55:08;14.60;99.90
9998;DHT22;5038;53.064;8.624;2023-05-10T07:57:38;14.70;99.90
9998;DHT22;5038;53.064;8.624;2023-05-10T08:00:07;14.70;99.90
9998;DHT22;5038;53.064;8.624;2023-05-10T08:02:41;14.70;99.90
9998;DHT22;5038;53.064;8.624;2023-05-10T08:05:09;14.70;99.90
9998;DHT22;5038;53.064;8.624;2023-05-10T08:07:38;14.80;99.90
9998;DHT22;5038;53.064;8.624;2023-05-10T08:10:07;14.90;99.90
9998;DHT22;5038;53.064;8.624;2023-05-10T08:12:37;14.90;99.90
9998;DHT22;5038;53.064;8.624;2023-05-10T08:15:06;14.90;99.90
9998;DHT22;5038;53.064;8.624;2023-05-10T08:17:34;15.00;99.90
9998;DHT22;5038;53.064;8.624;2023-05-10T08:20:03;15.00;99.90
9998;DHT22;5038;53.064;8.624;2023-05-10T08:22:31;15.00;99.90
9998;DHT22;5038;53.064;8.624;2023-05-10T08:24:59;15.00;99.90
9998;DHT22;5038;53.064;8.624;2023-05-10T08:27:27;15.00;99.90
9998;DHT22;5038;53.064;8.624;2023-05-10T08:29:56;15.00;99.90
9998;DHT22;5038;53.064;8.624;2023-05-10T08:32:24;15.00;99.90
9998;DHT22;5038;53.064;8.624;2023-05-10T08:34:52;15.10;99.90
9998;DHT22;5038;53.064;8.624;2023-05-10T08:37:20;15.20;99.90
9998;DHT22;5038;53.064;8.624;2023-05-10T08:39:49;15.30;99.90
9998;DHT22;5038;53.064;8.624;2023-05-10T08:42:19;15.40;99.90
9998;DHT22;5038;53.064;8.624;2023-05-10T08:44:50;15.40;99.90
9998;DHT22;5038;53.064;8.624;2023-05-10T08:47:21;15.40;99.90
9998;DHT22;5038;53.064;8.624;2023-05-10T08:49:49;15.40;99.90
9998;DHT22;5038;53.064;8.624;2023-05-10T08:52:18;15.40;99.90
9998;DHT22;5038;53.064;8.624;2023-05-10T08:54:47;15.40;99.90
9998;DHT22;5038;53.064;8.624;2023-05-10T08:57:15;15.40;99.90
9998;DHT22;5038;53.064;8.624;2023-05-10T08:59:43;15.40;99.90
9998;DHT22;5038;53.064;8.624;2023-05-10T09:02:12;15.40;99.90
9998;DHT22;5038;53.064;8.624;2023-05-10T09:04:45;15.50;99.90
9998;DHT22;5038;53.064;8.624;2023-05-10T09:07:13;15.50;99.90
9998;DHT22;5038;53.064;8.624;2023-05-10T09:09:42;15.50;99.90
9998;DHT22;5038;53.064;8.624;2023-05-10T09:12:11;15.50;99.90
9998;DHT22;5038;53.064;8.624;2023-05-10T09:14:43;15.50;99.90
9998;DHT22;5038;53.064;8.624;2023-05-10T09:17:12;15.50;99.90
9998;DHT22;5038;53.064;8.624;2023-05-10T09:19:40;15.50;99.90
9998;DHT22;5038;53.064;8.624;2023-05-10T09:22:10;15.50;99.90
9998;DHT22;5038;53.064;8.624;2023-05-10T09:24:38;15.50;99.90
9998;DHT22;5038;53.064;8.624;2023-05-10T09:27:11;15.50;99.90
9998;DHT22;5038;53.064;8.624;2023-05-10T09:29:40;15.50;99.90
9998;DHT22;5038;53.064;8.624;2023-05-10T09:32:09;15.50;99.90
9998;DHT22;5038;53.064;8.624;2023-05-10T09:34:37;15.50;99.90
9998;DHT22;5038;53.064;8.624;2023-05-10T09:37:06;15.60;99.90
9998;DHT22;5038;53.064;8.624;2023-05-10T09:39:37;15.60;99.90
9998;DHT22;5038;53.064;8.624;2023-05-10T09:42:07;15.60;99.90
9998;DHT22;5038;53.064;8.624;2023-05-10T09:44:36;15.60;99.90
9998;DHT22;5038;53.064;8.624;2023-05-10T09:47:04;15.60;99.90
9998;DHT22;5038;53.064;8.624;2023-05-10T09:49:33;15.60;99.90
9998;DHT22;5038;53.064;8.624;2023-05-10T09:52:03;15.60;99.90
9998;DHT22;5038;53.064;8.624;2023-05-10T09:54:31;15.60;99.90
9998;DHT22;5038;53.064;8.624;2023-05-10T09:57:01;15.50;99.90
9998;DHT22;5038;53.064;8.624;2023-05-10T09:59:30;15.50;99.90
9998;DHT22;5038;53.064;8.624;2023-05-10T10:01:59;15.50;99.90
9998;DHT22;5038;53.064;8.624;2023-05-10T10:04:28;15.60;99.90
9998;DHT22;5038;53.064;8.624;2023-05-10T10:07:01;15.60;99.90
9998;DHT22;5038;53.064;8.624;2023-05-10T10:09:30;15.80;99.90
9998;DHT22;5038;53.064;8.624;2023-05-10T10:12:00;15.90;99.90
9998;DHT22;5038;53.064;8.624;2023-05-10T10:14:29;15.90;99.90
9998;DHT22;5038;53.064;8.624;2023-05-10T10:16:57;16.00;99.90
9998;DHT22;5038;53.064;8.624;2023-05-10T10:19:33;16.00;99.90
9998;DHT22;5038;53.064;8.624;2023-05-10T10:22:02;16.10;99.90
9998;DHT22;5038;53.064;8.624;2023-05-10T10:24:30;16.10;99.90
9998;DHT22;5038;53.064;8.624;2023-05-10T10:27:06;16.20;99.90
9998;DHT22;5038;53.064;8.624;2023-05-10T10:29:41;16.30;99.90
9998;DHT22;5038;53.064;8.624;2023-05-10T10:32:22;16.40;99.90
9998;DHT22;5038;53.064;8.624;2023-05-10T10:34:54;16.40;99.90
9998;DHT22;5038;53.064;8.624;2023-05-10T10:37:24;16.50;99.90
9998;DHT22;5038;53.064;8.624;2023-05-10T10:40:23;16.60;99.90
9998;DHT22;5038;53.064;8.624;2023-05-10T10:42:54;16.70;99.90
9998;DHT22;5038;53.064;8.624;2023-05-10T10:45:23;16.70;99.90
9998;DHT22;5038;53.064;8.624;2023-05-10T10:48:21;16.70;99.90
9998;DHT22;5038;53.064;8.624;2023-05-10T10:50:56;16.70;99.90
9998;DHT22;5038;53.064;8.624;2023-05-10T10:53:26;16.70;99.90
9998;DHT22;5038;53.064;8.624;2023-05-10T10:56:05;16.70;99.90
9998;DHT22;5038;53.064;8.624;2023-05-10T10:58:38;16.80;99.90
9998;DHT22;5038;53.064;8.624;2023-05-10T11:01:11;16.80;99.90
9998;DHT22;5038;53.064;8.624;2023-05-10T11:03:40;16.80;99.90
9998;DHT22;5038;53.064;8.624;2023-05-10T11:06:08;16.80;99.90
9998;DHT22;5038;53.064;8.624;2023-05-10T11:08:42;16.80;99.90
9998;DHT22;5038;53.064;8.624;2023-05-10T11:11:14;16.80;99.90
9998;DHT22;5038;53.064;8.624;2023-05-10T11:13:45;16.90;99.90
9998;DHT22;5038;53.064;8.624;2023-05-10T11:16:19;16.90;99.90
9998;DHT22;5038;53.064;8.624;2023-05-10T11:19:02;17.00;99.90
9998;DHT22;5038;53.064;8.624;2023-05-10T11:21:31;17.00;99.90
9998;DHT22;5038;53.064;8.624;2023-05-10T11:24:00;16.90;99.90
9998;DHT22;5038;53.064;8.624;2023-05-10T11:26:34;16.90;99.90
9998;DHT22;5038;53.064;8.624;2023-05-10T11:29:04;16.90;99.90
9998;DHT22;5038;53.064;8.624;2023-05-10T11:31:32;16.80;99.90
9998;DHT22;5038;53.064;8.624;2023-05-10T11:34:01;16.80;99.90
9998;DHT22;5038;53.064;8.624;2023-05-10T11:36:33;16.70;99.90
9998;DHT22;5038;53.064;8.624;2023-05-10T11:39:01;16.60;99.90
9998;DHT22;5038;53.064;8.624;2023-05-10T11:41:30;16.50;99.90
9998;DHT22;5038;53.064;8.624;2023-05-10T11:43:58;16.50;99.90
9998;DHT22;5038;53.064;8.624;2023-05-10T11:46:28;16.50;99.90
9998;DHT22;5038;53.064;8.624;2023-05-10T11:48:59;16.50;99.90
9998;DHT22;5038;53.064;8.624;2023-05-10T11:51:33;16.60;99.90
9998;DHT22;5038;53.064;8.624;2023-05-10T11:54:05;16.60;99.90
9998;DHT22;5038;53.064;8.624;2023-05-10T11:56:33;16.60;99.90
9998;DHT22;5038;53.064;8.624;2023-05-10T11:59:01;16.60;99.90
9998;DHT22;5038;53.064;8.624;2023-05-10T12:01:31;16.60;99.90
9998;DHT22;5038;53.064;8.624;2023-05-10T12:03:59;16.60;99.90
9998;DHT22;5038;53.064;8.624;2023-05-10T12:06:30;16.50;99.90
9998;DHT22;5038;53.064;8.624;2023-05-10T12:08:59;16.50;99.90
9998;DHT22;5038;53.064;8.624;2023-05-10T12:11:28;16.50;99.90
9998;DHT22;5038;53.064;8.624;2023-05-10T12:13:56;16.50;99.90
9998;DHT22;5038;53.064;8.624;2023-05-10T12:16:26;16.50;99.90
9998;DHT22;5038;53.064;8.624;2023-05-10T12:18:59;16.50;99.90
9998;DHT22;5038;53.064;8.624;2023-05-10T12:21:29;16.50;99.90
9998;DHT22;5038;53.064;8.624;2023-05-10T12:24:01;16.50;99.90
9998;DHT22;5038;53.064;8.624;2023-05-10T12:26:30;16.50;99.90
9998;DHT22;5038;53.064;8.624;2023-05-10T12:29:12;16.40;99.90
9998;DHT22;5038;53.064;8.624;2023-05-10T12:31:53;16.40;99.90
9998;DHT22;5038;53.064;8.624;2023-05-10T12:34:30;16.40;99.90
9998;DHT22;5038;53.064;8.624;2023-05-10T12:36:58;16.30;99.90
9998;DHT22;5038;53.064;8.624;2023-05-10T12:39:38;16.40;99.90
9998;DHT22;5038;53.064;8.624;2023-05-10T12:42:06;16.40;99.90
9998;DHT22;5038;53.064;8.624;2023-05-10T12:44:35;16.40;99.90
9998;DHT22;5038;53.064;8.624;2023-05-10T12:47:03;16.40;99.90
9998;DHT22;5038;53.064;8.624;2023-05-10T12:49:33;16.50;99.90
9998;DHT22;5038;53.064;8.624;2023-05-10T12:52:01;16.50;99.90
9998;DHT22;5038;53.064;8.624;2023-05-10T12:54:29;16.60;99.90
9998;DHT22;5038;53.064;8.624;2023-05-10T12:56:59;16.60;99.90
9998;DHT22;5038;53.064;8.624;2023-05-10T12:59:27;16.70;99.90
9998;DHT22;5038;53.064;8.624;2023-05-10T13:01:56;16.70;99.90
9998;DHT22;5038;53.064;8.624;2023-05-10T13:04:24;16.70;99.90
9998;DHT22;5038;53.064;8.624;2023-05-10T13:06:54;16.80;99.90
9998;DHT22;5038;53.064;8.624;2023-05-10T13:09:25;16.80;99.90
9998;DHT22;5038;53.064;8.624;2023-05-10T13:11:53;16.90;99.90
9998;DHT22;5038;53.064;8.624;2023-05-10T13:14:21;16.90;99.90
9998;DHT22;5038;53.064;8.624;2023-05-10T13:16:49;16.80;99.90
9998;DHT22;5038;53.064;8.624;2023-05-10T13:19:17;16.80;99.90
9998;DHT22;5038;53.064;8.624;2023-05-10T13:21:46;16.80;99.90
9998;DHT22;5038;53.064;8.624;2023-05-10T13:24:16;16.80;99.90
9998;DHT22;5038;53.064;8.624;2023-05-10T13:26:44;16.70;99.90
9998;DHT22;5038;53.064;8.624;2023-05-10T13:29:12;16.80;99.90
9998;DHT22;5038;53.064;8.624;2023-05-10T13:31:40;16.80;99.90
9998;DHT22;5038;53.064;8.624;2023-05-10T13:34:08;16.80;99.90
9998;DHT22;5038;53.064;8.624;2023-05-10T13:36:36;16.80;99.90
9998;DHT22;5038;53.064;8.624;2023-05-10T13:39:05;16.80;99.90
9998;DHT22;5038;53.064;8.624;2023-05-10T13:41:34;16.80;99.90
9998;DHT22;5038;53.064;8.624;2023-05-10T13:44:03;16.90;99.90
9998;DHT22;5038;53.064;8.624;2023-05-10T13:46:31;16.90;99.90
9998;DHT22;5038;53.064;8.624;2023-05-10T13:48:59;16.90;99.90
9998;DHT22;5038;53.064;8.624;2023-05-10T13:51:27;16.90;99.90
9998;DHT22;5038;53.064;8.624;2023-05-10T13:53:55;17.00;99.90
9998;DHT22;5038;53.064;8.624;2023-05-10T13:56:24;17.00;99.90
9998;DHT22;5038;53.064;8.624;2023-05-10T13:58:53;17.00;99.90
9998;DHT22;5038;53.064;8.624;2023-05-10T14:01:22;17.10;99.90
9998;DHT22;5038;53.064;8.624;2023-05-10T14:03:50;17.10;99.90
9998;DHT22;5038;53.064;8.624;2023-05-10T14:06:18;17.20;99.90
9998;DHT22;5038;53.064;8.624;2023-05-10T14:08:46;17.30;99.90
9998;DHT22;5038;53.064;8.624;2023-05-10T14:11:15;17.40;99.90
9998;DHT22;5038;53.064;8.624;2023-05-10T14:13:43;17.50;99.90
9998;DHT22;5038;53.064;8.624;2023-05-10T14:16:12;17.60;99.90
9998;DHT22;5038;53.064;8.624;2023-05-10T14:18:41;17.70;99.90
9998;DHT22;5038;53.064;8.624;2023-05-10T14:21:09;17.80;99.90
9998;DHT22;5038;53.064;8.624;2023-05-10T14:23:38;18.00;99.90
9998;DHT22;5038;53.064;8.624;2023-05-10T14:26:06;18.10;99.90
9998;DHT22;5038;53.064;8.624;2023-05-10T14:28:34;18.20;99.90
9998;DHT22;5038;53.064;8.624;2023-05-10T14:31:02;18.30;99.90
9998;DHT22;5038;53.064;8.624;2023-05-10T14:33:33;18.30;99.90
9998;DHT22;5038;53.064;8.624;2023-05-10T14:36:01;18.30;99.90
9998;DHT22;5038;53.064;8.624;2023-05-10T14:38:30;18.20;99.90
9998;DHT22;5038;53.064;8.624;2023-05-10T14:40:58;18.10;99.90
9998;DHT22;5038;53.064;8.624;2023-05-10T14:43:26;18.00;99.90
9998;DHT22;5038;53.064;8.624;2023-05-10T14:45:54;17.90;99.90
9998;DHT22;5038;53.064;8.624;2023-05-10T14:48:22;17.80;99.90
9998;DHT22;5038;53.064;8.624;2023-05-10T14:50:52;17.80;99.90
9998;DHT22;5038;53.064;8.624;2023-05-10T14:53:20;17.70;99.90
9998;DHT22;5038;53.064;8.624;2023-05-10T14:55:48;17.60;99.90
9998;DHT22;5038;53.064;8.624;2023-05-10T14:58:16;17.60;99.90
9998;DHT22;5038;53.064;8.624;2023-05-10T15:00:44;17.60;99.90
9998;DHT22;5038;53.064;8.624;2023-05-10T15:03:13;17.70;99.90
9998;DHT22;5038;53.064;8.624;2023-05-10T15:05:42;17.70;99.90
9998;DHT22;5038;53.064;8.624;2023-05-10T15:08:12;17.80;99.90
9998;DHT22;5038;53.064;8.624;2023-05-10T15:10:40;17.90;99.90
9998;DHT22;5038;53.064;8.624;2023-05-10T15:13:08;17.90;99.90
9998;DHT22;5038;53.064;8.624;2023-05-10T15:15:36;17.90;99.90
9998;DHT22;5038;53.064;8.624;2023-05-10T15:18:04;17.90;99.90
9998;DHT22;5038;53.064;8.624;2023-05-10T15:20:33;17.90;99.90
9998;DHT22;5038;53.064;8.624;2023-05-10T15:23:01;17.80;99.90
9998;DHT22;5038;53.064;8.624;2023-05-10T15:25:31;17.70;99.90
9998;DHT22;5038;53.064;8.624;2023-05-10T15:28:01;17.60;99.90
9998;DHT22;5038;53.064;8.624;2023-05-10T15:30:29;17.50;99.90
9998;DHT22;5038;53.064;8.624;2023-05-10T15:32:57;17.40;99.90
9998;DHT22;5038;53.064;8.624;2023-05-10T15:35:26;17.40;99.90
9998;DHT22;5038;53.064;8.624;2023-05-10T15:37:54;17.40;99.90
9998;DHT22;5038;53.064;8.624;2023-05-10T15:40:22;17.40;99.90
9998;DHT22;5038;53.064;8.624;2023-05-10T15:42:51;17.50;99.90
9998;DHT22;5038;53.064;8.624;2023-05-10T15:45:19;17.40;99.90
9998;DHT22;5038;53.064;8.624;2023-05-10T15:47:48;17.40;99.90
9998;DHT22;5038;53.064;8.624;2023-05-10T15:50:16;17.40;99.90
9998;DHT22;5038;53.064;8.624;2023-05-10T15:52:44;17.50;99.90
9998;DHT22;5038;53.064;8.624;2023-05-10T15:55:12;17.50;99.90
9998;DHT22;5038;53.064;8.624;2023-05-10T15:57:42;17.50;99.90
9998;DHT22;5038;53.064;8.624;2023-05-10T16:00:13;17.50;99.90
9998;DHT22;5038;53.064;8.624;2023-05-10T16:02:41;17.50;99.90
9998;DHT22;5038;53.064;8.624;2023-05-10T16:05:09;17.40;99.90
9998;DHT22;5038;53.064;8.624;2023-05-10T16:07:37;17.40;99.90
9998;DHT22;5038;53.064;8.624;2023-05-10T16:10:09;17.40;99.90
9998;DHT22;5038;53.064;8.624;2023-05-10T16:12:37;17.50;99.90
9998;DHT22;5038;53.064;8.624;2023-05-10T16:15:06;17.50;99.90
9998;DHT22;5038;53.064;8.624;2023-05-10T16:17:36;17.50;99.90